createdAt,value
2019-01-24T00:02:00.109Z,0.30
2019-01-24T00:04:30.286Z,0.40
2019-01-24T00:07:00.873Z,0.40
2019-01-24T00:09:31.045Z,0.10
2019-01-24T00:12:01.272Z,0.10
2019-01-24T00:14:31.423Z,0.30
2019-01-24T00:17:01.669Z,0.40
2019-01-24T00:19:32.396Z,0.40
2019-01-24T00:24:49.024Z,0.20
2019-01-24T00:27:19.261Z,0.20
2019-01-24T00:29:49.739Z,0.10
2019-01-24T00:32:19.944Z,0.30
2019-01-24T00:34:50.157Z,0.40
2019-01-24T00:37:20.359Z,0.20
2019-01-24T00:39:50.631Z,0.30
2019-01-24T00:42:20.819Z,0.20
2019-01-24T00:44:51.407Z,0.20
2019-01-24T00:47:21.761Z,0.50
2019-01-24T00:49:51.935Z,0.40
2019-01-24T00:52:22.438Z,0.10
2019-01-24T00:54:52.659Z,0.10
2019-01-24T00:57:23.208Z,0.30
2019-01-24T00:59:53.374Z,0.30
2019-01-24T01:02:23.974Z,0.30
2019-01-24T01:04:54.229Z,0.20
2019-01-24T01:07:24.367Z,0.00
2019-01-24T01:09:54.519Z,0.30
2019-01-24T01:12:25.188Z,0.50
2019-01-24T01:14:55.760Z,0.40
2019-01-24T01:17:26.007Z,0.30
2019-01-24T01:19:56.598Z,0.20
2019-01-24T01:22:27.178Z,0.30
2019-01-24T01:24:57.538Z,0.40
2019-01-24T01:27:27.891Z,0.00
2019-01-24T01:29:58.158Z,0.10
2019-01-24T01:32:28.930Z,0.30
2019-01-24T01:34:59.254Z,0.30
2019-01-24T01:37:29.459Z,0.00
2019-01-24T01:39:59.663Z,0.10
2019-01-24T01:42:29.922Z,0.20
2019-01-24T01:45:00.193Z,-0.10
2019-01-24T01:47:30.746Z,0.20
2019-01-24T01:50:01.286Z,0.20
2019-01-24T01:52:31.583Z,0.20
2019-01-24T01:55:01.797Z,-0.10
2019-01-24T01:57:32.739Z,-0.10
2019-01-24T02:00:03.705Z,-0.40
2019-01-24T02:02:33.995Z,-0.40
2019-01-24T02:05:05.319Z,-0.90
2019-01-24T02:07:35.567Z,-0.70
2019-01-24T02:10:09.103Z,-0.90
2019-01-24T02:12:39.332Z,-0.90
2019-01-24T02:15:10.405Z,-0.90
2019-01-24T02:17:40.659Z,-1.00
2019-01-24T02:20:14.405Z,-0.70
2019-01-24T02:22:45.205Z,-1.00
2019-01-24T02:25:16.321Z,-0.90
2019-01-24T02:27:46.558Z,-0.90
2019-01-24T02:30:25.501Z,-0.90
2019-01-24T02:32:55.797Z,-0.90
2019-01-24T02:35:26.322Z,-0.90
2019-01-24T02:37:56.667Z,-0.70
2019-01-24T02:40:27.048Z,-0.80
2019-01-24T02:42:57.597Z,-0.90
2019-01-24T02:45:27.809Z,-0.50
2019-01-24T02:47:58.458Z,-0.50
2019-01-24T02:50:28.740Z,-0.70
2019-01-24T02:52:59.005Z,-0.60
2019-01-24T02:55:30.805Z,-0.40
2019-01-24T02:58:01.002Z,-0.50
2019-01-24T03:00:31.245Z,-0.30
2019-01-24T03:03:01.477Z,-0.50
2019-01-24T03:05:31.680Z,-0.20
2019-01-24T03:08:01.933Z,-0.20
2019-01-24T03:10:32.170Z,-0.30
2019-01-24T03:13:03.397Z,-0.20
2019-01-24T03:15:33.897Z,-0.20
2019-01-24T03:18:04.265Z,-0.10
2019-01-24T03:20:34.478Z,-0.20
2019-01-24T03:23:04.677Z,-0.10
2019-01-24T03:25:35.227Z,-0.10
2019-01-24T03:28:05.938Z,-0.30
2019-01-24T03:30:36.195Z,-0.30
2019-01-24T03:33:06.424Z,-0.50
2019-01-24T03:35:36.953Z,-0.70
2019-01-24T03:38:07.157Z,-0.60
2019-01-24T03:40:37.545Z,-0.90
2019-01-24T03:43:07.823Z,-0.90
2019-01-24T03:45:38.454Z,-0.80
2019-01-24T03:48:08.723Z,-1.00
2019-01-24T03:50:38.937Z,-1.00
2019-01-24T03:53:09.153Z,-1.00
2019-01-24T03:55:39.643Z,-1.00
2019-01-24T03:58:09.893Z,-1.00
2019-01-24T04:00:40.394Z,-1.20
2019-01-24T04:03:11.266Z,-1.10
2019-01-24T04:05:42.009Z,-1.30
2019-01-24T04:08:12.207Z,-1.40
2019-01-24T04:10:42.419Z,-1.30
2019-01-24T04:13:12.651Z,-1.40
2019-01-24T04:15:42.885Z,-1.10
2019-01-24T04:18:13.827Z,-1.20
2019-01-24T04:20:44.457Z,-1.20
2019-01-24T04:23:14.660Z,-1.00
2019-01-24T04:25:45.285Z,-1.10
2019-01-24T04:28:15.508Z,-1.10
2019-01-24T04:30:45.736Z,-1.50
2019-01-24T04:33:15.975Z,-1.30
2019-01-24T04:35:46.454Z,-1.20
2019-01-24T04:38:17.510Z,-1.50
2019-01-24T04:40:47.692Z,-1.50
2019-01-24T04:43:18.260Z,-1.40
2019-01-24T04:45:48.604Z,-1.40
2019-01-24T04:48:19.435Z,-1.40
2019-01-24T04:50:49.689Z,-1.50
2019-01-24T04:53:19.889Z,-1.20
2019-01-24T04:55:50.548Z,-1.30
2019-01-24T04:58:20.778Z,-1.40
2019-01-24T05:00:51.313Z,-1.30
2019-01-24T05:03:21.823Z,-1.30
2019-01-24T05:05:52.021Z,-1.30
2019-01-24T05:08:22.263Z,-1.10
2019-01-24T05:10:52.882Z,-1.40
2019-01-24T05:13:23.109Z,-1.20
2019-01-24T05:15:53.278Z,-1.10
2019-01-24T05:18:23.539Z,-1.40
2019-01-24T05:20:54.059Z,-1.30
2019-01-24T05:23:24.575Z,-1.60
2019-01-24T05:25:55.228Z,-1.40
2019-01-24T05:28:25.506Z,-1.40
2019-01-24T05:30:55.666Z,-1.30
2019-01-24T05:33:26.153Z,-1.70
2019-01-24T05:35:56.433Z,-2.10
2019-01-24T05:38:27.310Z,-2.20
2019-01-24T05:40:57.546Z,-2.10
2019-01-24T05:43:27.779Z,-2.10
2019-01-24T05:45:58.399Z,-2.60
2019-01-24T05:48:29.053Z,-2.50
2019-01-24T05:50:59.274Z,-2.60
2019-01-24T05:53:29.877Z,-2.40
2019-01-24T05:56:00.145Z,-2.20
2019-01-24T05:58:30.380Z,-2.00
2019-01-24T06:01:02.309Z,-2.10
2019-01-24T06:03:32.737Z,-2.50
2019-01-24T06:06:03.377Z,-2.30
2019-01-24T06:08:33.602Z,-2.30
2019-01-24T06:11:03.821Z,-2.30
2019-01-24T06:13:34.046Z,-2.30
2019-01-24T06:16:04.247Z,-2.10
2019-01-24T06:18:34.485Z,-2.30
2019-01-24T06:21:04.969Z,-2.20
2019-01-24T06:23:35.215Z,-2.20
2019-01-24T06:26:05.419Z,-2.10
2019-01-24T06:28:36.118Z,-2.10
2019-01-24T06:31:06.311Z,-2.10
2019-01-24T06:33:36.883Z,-2.10
2019-01-24T06:36:07.483Z,-1.90
2019-01-24T06:38:37.738Z,-1.80
2019-01-24T06:41:07.990Z,-1.70
2019-01-24T06:43:38.373Z,-1.70
2019-01-24T06:46:08.929Z,-1.30
2019-01-24T06:48:39.955Z,-1.40
2019-01-24T06:51:10.178Z,-1.60
2019-01-24T06:53:40.697Z,-1.60
2019-01-24T06:56:10.979Z,-1.50
2019-01-24T06:58:41.305Z,-1.20
2019-01-24T07:01:11.893Z,-1.40
2019-01-24T07:03:42.227Z,-1.30
2019-01-24T07:06:12.551Z,-1.20
2019-01-24T07:08:43.119Z,-1.30
2019-01-24T07:11:13.637Z,-1.30
2019-01-24T07:13:43.947Z,-1.20
2019-01-24T07:16:14.596Z,-1.40
2019-01-24T07:18:45.270Z,-1.40
2019-01-24T07:21:15.522Z,-1.30
2019-01-24T07:23:45.795Z,-1.40
2019-01-24T07:26:16.743Z,-1.60
2019-01-24T07:28:47.094Z,-1.80
2019-01-24T07:31:17.743Z,-1.70
2019-01-24T07:33:48.337Z,-1.70
2019-01-24T07:36:18.519Z,-1.80
2019-01-24T07:38:48.710Z,-1.80
2019-01-24T07:41:19.346Z,-1.80
2019-01-24T07:43:49.567Z,-1.80
2019-01-24T07:46:19.868Z,-1.80
2019-01-24T07:48:50.009Z,-1.20
2019-01-24T07:51:20.160Z,-1.00
2019-01-24T07:53:51.108Z,-0.90
2019-01-24T07:56:21.404Z,-0.80
2019-01-24T07:58:51.662Z,-0.70
2019-01-24T08:01:21.897Z,-0.70
2019-01-24T08:03:52.540Z,-0.80
2019-01-24T08:06:22.741Z,-1.00
2019-01-24T08:08:53.643Z,-1.30
2019-01-24T08:11:24.264Z,-1.10
2019-01-24T08:13:54.809Z,-1.00
2019-01-24T08:16:25.858Z,-0.90
2019-01-24T08:18:56.560Z,-0.70
2019-01-24T08:21:26.830Z,-0.80
2019-01-24T08:23:57.934Z,-0.80
2019-01-24T08:26:28.178Z,-0.90
2019-01-24T08:28:58.350Z,-0.90
2019-01-24T08:31:28.653Z,-0.70
2019-01-24T08:33:59.993Z,-0.40
2019-01-24T08:36:30.607Z,-0.60
2019-01-24T08:39:00.899Z,-0.40
2019-01-24T08:41:31.165Z,-0.20
2019-01-24T08:44:01.409Z,-0.30
2019-01-24T08:46:31.603Z,-0.10
2019-01-24T08:49:02.156Z,-0.10
2019-01-24T08:51:32.453Z,-0.20
2019-01-24T08:54:02.726Z,-0.20
2019-01-24T08:56:33.519Z,0.00
2019-01-24T08:59:04.055Z,0.40
2019-01-24T09:01:34.354Z,0.30
2019-01-24T09:04:04.581Z,0.30
2019-01-24T09:06:35.067Z,0.40
2019-01-24T09:09:09.445Z,0.50
2019-01-24T09:11:39.771Z,0.60
2019-01-24T09:14:10.357Z,0.50
2019-01-24T09:16:40.881Z,0.80
2019-01-24T09:19:11.127Z,0.60
2019-01-24T09:21:41.649Z,1.00
2019-01-24T09:24:11.882Z,0.80
2019-01-24T09:26:43.014Z,0.70
2019-01-24T09:29:13.706Z,0.90
2019-01-24T09:31:44.282Z,1.00
2019-01-24T09:34:14.499Z,0.80
2019-01-24T09:36:44.791Z,1.10
2019-01-24T09:39:15.001Z,1.30
2019-01-24T09:41:45.209Z,1.40
2019-01-24T09:44:15.388Z,1.20
2019-01-24T09:46:45.881Z,1.40
2019-01-24T09:49:16.003Z,1.60
2019-01-24T09:51:46.501Z,1.60
2019-01-24T09:54:16.761Z,1.50
2019-01-24T09:56:47.207Z,1.60
2019-01-24T09:59:17.316Z,1.40
2019-01-24T10:01:47.938Z,1.40
2019-01-24T10:04:18.128Z,1.50
2019-01-24T10:06:49.028Z,1.30
2019-01-24T10:09:19.154Z,1.30
2019-01-24T10:11:49.390Z,1.10
2019-01-24T10:14:19.662Z,1.40
2019-01-24T10:16:49.930Z,1.50
2019-01-24T10:19:20.178Z,2.10
2019-01-24T10:21:50.748Z,1.90
2019-01-24T10:24:20.914Z,1.70
2019-01-24T10:26:51.250Z,2.10
2019-01-24T10:29:21.528Z,2.10
2019-01-24T10:31:52.074Z,1.90
2019-01-24T10:34:22.398Z,2.20
2019-01-24T10:36:52.999Z,2.00
2019-01-24T10:39:23.154Z,1.60
2019-01-24T10:41:53.429Z,1.60
2019-01-24T10:44:23.674Z,1.80
2019-01-24T10:46:53.881Z,2.20
2019-01-24T10:49:24.566Z,2.10
2019-01-24T10:51:54.802Z,1.90
2019-01-24T10:54:25.525Z,2.10
2019-01-24T10:56:56.366Z,2.10
2019-01-24T10:59:26.633Z,2.20
2019-01-24T11:01:56.832Z,2.10
2019-01-24T11:04:27.068Z,2.50
2019-01-24T11:06:57.345Z,2.40
2019-01-24T11:09:27.878Z,2.60
2019-01-24T11:11:58.451Z,2.80
2019-01-24T11:14:28.711Z,2.90
2019-01-24T11:16:59.420Z,2.80
2019-01-24T11:19:29.699Z,3.00
2019-01-24T11:21:59.965Z,2.70
2019-01-24T11:24:30.620Z,2.80
2019-01-24T11:27:01.289Z,2.50
2019-01-24T11:29:31.497Z,2.80
2019-01-24T11:32:02.073Z,2.80
2019-01-24T11:34:33.143Z,2.90
2019-01-24T11:37:03.743Z,2.60
2019-01-24T11:39:34.687Z,2.50
2019-01-24T11:42:05.751Z,2.80
2019-01-24T11:44:36.394Z,2.90
2019-01-24T11:47:07.026Z,2.90
2019-01-24T11:49:37.224Z,2.50
2019-01-24T11:52:07.469Z,2.70
2019-01-24T11:54:37.708Z,2.80
2019-01-24T11:57:07.900Z,2.80
2019-01-24T11:59:38.140Z,2.40
2019-01-24T12:02:08.374Z,2.30
2019-01-24T12:04:39.010Z,2.30
2019-01-24T12:07:09.275Z,2.40
2019-01-24T12:09:39.494Z,2.80
2019-01-24T12:12:09.901Z,2.50
2019-01-24T12:14:40.171Z,2.70
2019-01-24T12:17:10.416Z,2.80
2019-01-24T12:19:40.706Z,2.70
2019-01-24T12:22:11.003Z,2.60
2019-01-24T12:24:41.698Z,2.60
2019-01-24T12:27:11.961Z,2.30
2019-01-24T12:29:42.344Z,2.20
2019-01-24T12:32:12.556Z,2.30
2019-01-24T12:34:43.113Z,2.40
2019-01-24T12:37:13.349Z,2.20
2019-01-24T12:39:43.655Z,2.60
2019-01-24T12:42:13.848Z,2.60
2019-01-24T12:44:44.564Z,2.60
2019-01-24T12:47:14.739Z,2.70
2019-01-24T12:49:45.400Z,2.60
2019-01-24T12:52:15.628Z,2.70
2019-01-24T12:54:46.191Z,2.40
2019-01-24T12:57:16.719Z,2.70
2019-01-24T12:59:46.976Z,2.90
2019-01-24T13:02:17.651Z,2.90
2019-01-24T13:04:47.936Z,2.70
2019-01-24T13:07:18.623Z,2.60
2019-01-24T13:09:49.290Z,2.90
2019-01-24T13:12:19.575Z,2.60
2019-01-24T13:14:49.805Z,2.70
2019-01-24T13:17:20.091Z,2.60
2019-01-24T13:19:50.581Z,2.80
2019-01-24T13:22:20.819Z,2.30
2019-01-24T13:24:51.064Z,2.70
2019-01-24T13:27:21.549Z,2.70
2019-01-24T13:29:51.799Z,2.40
2019-01-24T13:32:22.072Z,2.30
2019-01-24T13:34:52.369Z,2.70
2019-01-24T13:37:26.006Z,2.80
2019-01-24T13:39:54.779Z,3.20
2019-01-24T13:42:25.029Z,2.80
2019-01-24T13:44:55.310Z,2.90
2019-01-24T13:47:25.551Z,2.80
2019-01-24T13:49:55.903Z,2.80
2019-01-24T13:52:26.409Z,2.70
2019-01-24T13:54:56.639Z,3.20
2019-01-24T13:57:26.955Z,3.00
2019-01-24T13:59:57.855Z,2.80
2019-01-24T14:02:28.058Z,2.40
2019-01-24T14:04:58.483Z,2.50
2019-01-24T14:07:32.985Z,2.40
2019-01-24T14:10:00.664Z,2.50
2019-01-24T14:12:30.988Z,2.40
2019-01-24T14:15:01.502Z,2.20
2019-01-24T14:17:31.718Z,2.10
2019-01-24T14:20:01.935Z,2.20
2019-01-24T14:22:32.314Z,2.50
2019-01-24T14:25:02.515Z,2.80
2019-01-24T14:27:32.826Z,2.80
2019-01-24T14:30:03.132Z,2.80
2019-01-24T14:32:33.390Z,2.80
2019-01-24T14:35:04.012Z,2.70
2019-01-24T14:37:39.778Z,2.50
2019-01-24T14:40:07.286Z,2.60
2019-01-24T14:42:37.562Z,2.70
2019-01-24T14:45:10.740Z,2.40
2019-01-24T14:47:41.242Z,2.50
2019-01-24T14:50:14.993Z,2.10
2019-01-24T14:52:45.880Z,2.40
2019-01-24T14:55:16.224Z,2.00
2019-01-24T14:57:46.439Z,2.10
2019-01-24T15:00:35.335Z,2.00
2019-01-24T15:03:05.873Z,1.70
2019-01-24T15:05:36.215Z,2.20
2019-01-24T15:08:07.123Z,1.90
2019-01-24T15:10:37.429Z,2.20
2019-01-24T15:13:10.589Z,2.30
2019-01-24T15:15:40.903Z,2.20
2019-01-24T15:18:12.027Z,1.90
2019-01-24T15:20:42.978Z,2.10
2019-01-24T15:23:13.222Z,2.10
2019-01-24T15:25:43.541Z,2.60
2019-01-24T15:28:13.745Z,2.70
2019-01-24T15:30:44.385Z,2.40
2019-01-24T15:33:14.599Z,2.50
2019-01-24T15:35:45.205Z,2.20
2019-01-24T15:38:15.893Z,2.20
2019-01-24T15:40:46.160Z,2.10
2019-01-24T15:43:16.377Z,2.30
2019-01-24T15:45:46.593Z,2.10
2019-01-24T15:48:16.843Z,2.50
2019-01-24T15:50:47.040Z,2.70
2019-01-24T15:53:17.307Z,2.60
2019-01-24T15:56:08.347Z,2.40
2019-01-24T15:58:38.668Z,2.30
2019-01-24T16:01:08.875Z,2.20
2019-01-24T16:03:39.096Z,2.00
2019-01-24T16:06:09.282Z,2.20
2019-01-24T16:08:39.839Z,1.90
2019-01-24T16:11:10.056Z,2.00
2019-01-24T16:13:40.276Z,2.40
2019-01-24T16:16:10.515Z,2.20
2019-01-24T16:18:40.759Z,2.40
2019-01-24T16:21:11.001Z,1.90
2019-01-24T16:23:41.396Z,1.90
2019-01-24T16:26:11.658Z,1.60
2019-01-24T16:28:41.889Z,1.50
2019-01-24T16:31:12.592Z,1.30
2019-01-24T16:33:43.171Z,1.60
2019-01-24T16:36:13.413Z,1.50
2019-01-24T16:38:43.633Z,1.50
2019-01-24T16:41:14.218Z,1.60
2019-01-24T16:43:44.476Z,1.40
2019-01-24T16:46:16.369Z,1.40
2019-01-24T16:48:46.690Z,1.40
2019-01-24T16:51:16.854Z,1.40
2019-01-24T16:53:47.143Z,1.50
2019-01-24T16:56:17.743Z,1.60
2019-01-24T16:58:48.034Z,1.30
2019-01-24T17:01:20.723Z,1.40
2019-01-24T17:03:51.340Z,1.30
2019-01-24T17:06:22.173Z,1.20
2019-01-24T17:08:53.775Z,1.30
2019-01-24T17:11:24.423Z,1.50
2019-01-24T17:13:55.371Z,1.10
2019-01-24T17:16:25.575Z,1.10
2019-01-24T17:18:55.717Z,1.40
2019-01-24T17:21:26.309Z,1.80
2019-01-24T17:23:56.843Z,1.60
2019-01-24T17:26:27.390Z,1.60
2019-01-24T17:28:57.995Z,1.30
2019-01-24T17:31:28.324Z,1.60
2019-01-24T17:33:58.823Z,1.50
2019-01-24T17:36:29.445Z,1.60
2019-01-24T17:38:59.665Z,1.50
2019-01-24T17:41:30.305Z,1.70
2019-01-24T17:44:00.962Z,1.50
2019-01-24T17:46:31.673Z,1.90
2019-01-24T17:49:01.922Z,1.80
2019-01-24T17:51:32.158Z,1.80
2019-01-24T17:54:02.387Z,1.40
2019-01-24T17:56:32.599Z,1.60
2019-01-24T17:59:03.006Z,1.50
2019-01-24T18:01:33.185Z,1.80
2019-01-24T18:04:03.442Z,1.90
2019-01-24T18:06:34.021Z,1.90
2019-01-24T18:09:06.676Z,2.00
2019-01-24T18:11:37.210Z,2.20
2019-01-24T18:14:09.879Z,1.90
2019-01-24T18:16:40.512Z,2.00
2019-01-24T18:19:10.642Z,1.90
2019-01-24T18:21:40.935Z,2.00
2019-01-24T18:24:11.191Z,1.60
2019-01-24T18:26:41.773Z,1.80
2019-01-24T18:29:12.345Z,1.50
2019-01-24T18:31:42.636Z,1.40
2019-01-24T18:34:12.811Z,1.30
2019-01-24T18:36:43.065Z,1.30
2019-01-24T18:39:14.184Z,1.30
2019-01-24T18:41:44.825Z,1.10
2019-01-24T18:44:15.402Z,1.60
2019-01-24T18:46:45.699Z,1.50
2019-01-24T18:49:15.962Z,1.60
2019-01-24T18:51:46.199Z,1.30
2019-01-24T18:54:16.409Z,1.50
2019-01-24T18:56:46.606Z,1.70
2019-01-24T18:59:16.865Z,1.70
2019-01-24T19:01:47.357Z,1.50
2019-01-24T19:04:17.600Z,1.50
2019-01-24T19:06:48.261Z,1.20
2019-01-24T19:09:18.464Z,0.90
2019-01-24T19:11:48.972Z,0.70
2019-01-24T19:14:19.542Z,0.50
2019-01-24T19:16:50.409Z,0.40
2019-01-24T19:19:20.564Z,0.70
2019-01-24T19:21:51.504Z,0.50
2019-01-24T19:24:22.037Z,0.30
2019-01-24T19:26:52.267Z,0.30
2019-01-24T19:29:22.490Z,0.50
2019-01-24T19:31:52.718Z,0.50
2019-01-24T19:34:23.071Z,0.50
2019-01-24T19:36:53.254Z,0.70
2019-01-24T19:39:23.487Z,0.50
2019-01-24T19:41:53.768Z,0.30
2019-01-24T19:44:24.353Z,0.60
2019-01-24T19:46:55.195Z,0.50
2019-01-24T19:49:25.448Z,0.70
2019-01-24T19:51:55.748Z,0.80
2019-01-24T19:54:26.390Z,0.90
2019-01-24T19:56:56.948Z,0.70
2019-01-24T19:59:27.527Z,0.90
2019-01-24T20:01:57.786Z,1.00
2019-01-24T20:04:28.336Z,0.70
2019-01-24T20:06:58.909Z,0.90
2019-01-24T20:09:29.164Z,1.10
2019-01-24T20:11:59.355Z,0.80
2019-01-24T20:14:29.599Z,0.70
2019-01-24T20:16:59.835Z,1.20
2019-01-24T20:19:30.054Z,1.10
2019-01-24T20:22:00.336Z,1.00
2019-01-24T20:24:30.685Z,1.10
2019-01-24T20:27:00.907Z,1.00
2019-01-24T20:29:31.631Z,0.70
2019-01-24T20:32:01.877Z,0.80
2019-01-24T20:34:32.240Z,0.70
2019-01-24T20:37:02.776Z,0.70
2019-01-24T20:39:33.425Z,0.60
2019-01-24T20:42:03.998Z,0.50
2019-01-24T20:44:34.356Z,0.80
2019-01-24T20:47:04.569Z,0.90
2019-01-24T20:49:35.265Z,0.60
2019-01-24T20:52:05.821Z,0.70
2019-01-24T20:54:36.538Z,0.70
2019-01-24T20:57:06.811Z,0.60
2019-01-24T20:59:37.139Z,0.50
2019-01-24T21:02:07.815Z,0.50
2019-01-24T21:04:38.333Z,0.80
2019-01-24T21:07:09.131Z,0.90
2019-01-24T21:09:39.481Z,0.40
2019-01-24T21:12:09.779Z,0.50
2019-01-24T21:14:40.055Z,0.10
2019-01-24T21:17:10.389Z,0.20
2019-01-24T21:19:40.721Z,0.50
2019-01-24T21:22:11.087Z,0.10
2019-01-24T21:24:41.467Z,0.40
2019-01-24T21:27:11.765Z,0.50
2019-01-24T21:29:42.122Z,0.20
2019-01-24T21:32:12.424Z,0.60
2019-01-24T21:34:43.884Z,0.20
2019-01-24T21:37:14.522Z,0.20
2019-01-24T21:39:45.300Z,0.30
2019-01-24T21:42:15.645Z,0.50
2019-01-24T21:44:45.953Z,0.50
2019-01-24T21:47:16.227Z,0.10
2019-01-24T21:49:46.538Z,0.20
2019-01-24T21:52:16.781Z,0.20
2019-01-24T21:54:47.179Z,0.50
2019-01-24T21:57:17.441Z,0.40
2019-01-24T21:59:47.750Z,0.60
2019-01-24T22:02:18.100Z,0.50
2019-01-24T22:04:48.350Z,0.70
2019-01-24T22:07:18.642Z,0.60
2019-01-24T22:09:49.226Z,0.60
2019-01-24T22:12:19.550Z,0.30
2019-01-24T22:14:49.829Z,0.20
2019-01-24T22:17:21.205Z,0.30
2019-01-24T22:19:51.506Z,0.20
2019-01-24T22:22:21.801Z,0.30
2019-01-24T22:24:52.114Z,0.50
2019-01-24T22:27:23.154Z,0.60
2019-01-24T22:29:53.430Z,0.30
2019-01-24T22:32:23.734Z,0.30
2019-01-24T22:34:54.439Z,0.50
2019-01-24T22:37:24.698Z,0.50
2019-01-24T22:39:55.410Z,0.70
2019-01-24T22:42:25.692Z,0.40
2019-01-24T22:44:56.022Z,0.50
2019-01-24T22:47:26.312Z,0.20
2019-01-24T22:49:56.562Z,0.50
2019-01-24T22:52:27.399Z,0.20
2019-01-24T22:54:57.671Z,0.50
2019-01-24T22:57:27.951Z,0.70
2019-01-24T22:59:58.199Z,0.70
2019-01-24T23:02:31.018Z,0.70
2019-01-24T23:05:01.266Z,0.40
2019-01-24T23:07:31.645Z,0.50
2019-01-24T23:10:01.890Z,0.30
2019-01-24T23:12:32.134Z,0.60
2019-01-24T23:15:02.778Z,0.10
2019-01-24T23:17:33.044Z,-0.10
2019-01-24T23:20:03.388Z,0.10
2019-01-24T23:22:33.983Z,0.10
2019-01-24T23:25:04.820Z,0.30
2019-01-24T23:27:35.073Z,0.20
2019-01-24T23:30:07.590Z,0.30
2019-01-24T23:32:37.884Z,0.20
2019-01-24T23:35:09.317Z,0.10
2019-01-24T23:37:39.585Z,0.20
2019-01-24T23:40:10.126Z,0.00
2019-01-24T23:42:40.394Z,0.00
2019-01-24T23:45:11.727Z,0.00
2019-01-24T23:47:42.087Z,0.20
2019-01-24T23:50:12.994Z,0.40
2019-01-24T23:52:43.660Z,0.60
2019-01-24T23:55:31.802Z,0.60
2019-01-24T23:58:02.050Z,0.40
